Time;durP1;ratioP1;P1;durP2;ratioP2;P2;SDS_P1;SDS_P2;PMS_P1;PMS_P2;Temp;Humidity;BMP_temperature;BMP_pressure;BME280_temperature;BME280_humidity;BME280_pressure;Samples;Min_cycle;Max_cycle;Signal;HPM_P1;HPM_P2
2023/08/13 00:00:52;;;;;;;0.30;0.30;;;;;;;17.55;100.00;99019.28;4821631;29;20060;-80
2023/08/13 00:03:22;;;;;;;0.30;0.30;;;;;;;17.58;100.00;99019.81;4805889;29;20050;-79
2023/08/13 00:05:50;;;;;;;0.30;0.30;;;;;;;17.57;100.00;99015.44;4805586;29;20514;-80
2023/08/13 00:08:17;;;;;;;0.30;0.30;;;;;;;17.52;100.00;99013.56;4821884;29;20062;-80
2023/08/13 00:10:44;;;;;;;0.30;0.30;;;;;;;17.48;100.00;99009.81;4821551;29;20137;-81
2023/08/13 00:13:15;;;;;;;0.30;0.30;;;;;;;17.42;100.00;99006.34;4821647;29;20059;-80
2023/08/13 00:15:42;;;;;;;0.30;0.30;;;;;;;17.40;100.00;99007.72;4821508;29;20061;-80
2023/08/13 00:18:10;;;;;;;0.30;0.30;;;;;;;17.41;100.00;99009.34;4821483;29;20135;-80
2023/08/13 00:20:37;;;;;;;0.30;0.30;;;;;;;17.37;100.00;99011.00;4821748;29;20046;-80
2023/08/13 00:23:04;;;;;;;0.30;0.30;;;;;;;17.32;100.00;99009.97;4805362;29;20062;-80
2023/08/13 00:25:34;;;;;;;0.30;0.30;;;;;;;17.21;100.00;98992.06;4820494;29;20055;-81
2023/08/13 00:28:01;;;;;;;0.30;0.30;;;;;;;17.32;100.00;99009.16;4821579;29;20046;-80
2023/08/13 00:30:28;;;;;;;0.30;0.30;;;;;;;17.30;100.00;98998.53;4821339;29;20077;-80
2023/08/13 00:32:55;;;;;;;0.30;0.30;;;;;;;17.32;100.00;98999.06;4821383;29;20053;-80
2023/08/13 00:35:33;;;;;;;0.30;0.30;;;;;;;17.32;100.00;99007.25;4820029;29;20111;-80
2023/08/13 00:38:00;;;;;;;0.30;0.30;;;;;;;17.32;100.00;98999.06;4805436;29;20107;-81
2023/08/13 00:40:30;;;;;;;0.30;0.30;;;;;;;17.37;100.00;99000.09;4822626;29;20073;-81
2023/08/13 00:42:57;;;;;;;0.30;0.30;;;;;;;17.36;100.00;98993.03;4808887;29;20058;-81
2023/08/13 00:45:27;;;;;;;0.30;0.30;;;;;;;17.36;100.00;98988.38;4825349;29;20050;-80
2023/08/13 00:47:56;;;;;;;0.30;0.30;;;;;;;17.36;100.00;98982.13;4793690;29;20059;-82
2023/08/13 00:50:23;;;;;;;0.30;0.30;;;;;;;17.33;100.00;98992.50;4824885;29;20047;-81
2023/08/13 00:52:53;;;;;;;0.30;0.30;;;;;;;17.31;100.00;98975.59;4793721;29;20408;-81
2023/08/13 00:55:21;;;;;;;0.30;0.30;;;;;;;17.29;100.00;98972.38;4824545;29;20069;-81
2023/08/13 00:57:48;;;;;;;0.30;0.30;;;;;;;17.32;100.00;98981.91;4823410;29;20514;-80
2023/08/13 01:00:16;;;;;;;0.30;0.30;;;;;;;17.34;100.00;98982.41;4808726;29;20061;-80
2023/08/13 01:02:44;;;;;;;0.30;0.30;;;;;;;17.34;100.00;98982.41;4824596;29;20433;-79
2023/08/13 01:05:12;;;;;;;0.30;0.30;;;;;;;17.33;100.00;98973.41;4823302;29;20061;-81
2023/08/13 01:07:53;;;;;;;0.30;0.30;;;;;;;17.34;100.00;98976.94;4823953;29;20061;-81
2023/08/13 01:10:36;;;;;;;0.30;0.30;;;;;;;17.31;100.00;98982.97;4808291;29;20082;-79
2023/08/13 01:13:27;;;;;;;0.30;0.30;;;;;;;17.30;100.00;98981.38;4824362;29;20047;-81
2023/08/13 01:15:56;;;;;;;0.30;0.30;;;;;;;17.26;100.00;98966.66;4807720;29;20149;-79
2023/08/13 01:18:24;;;;;;;0.30;0.30;;;;;;;17.30;100.00;98984.91;4808116;29;20073;-79
2023/08/13 01:20:51;;;;;;;0.30;0.30;;;;;;;17.30;100.00;98984.91;4823504;29;20061;-81
2023/08/13 01:23:20;;;;;;;0.30;0.30;;;;;;;17.26;100.00;98978.38;4807872;29;20062;-81
2023/08/13 01:25:58;;;;;;;0.30;0.30;;;;;;;17.31;100.00;98980.25;4823679;29;20058;-80
2023/08/13 01:28:36;;;;;;;0.30;0.30;;;;;;;17.30;100.00;98984.91;4824010;29;20059;-80
2023/08/13 01:31:19;;;;;;;0.30;0.30;;;;;;;17.27;100.00;98979.22;4807624;29;20050;-81
2023/08/13 01:33:48;;;;;;;;;;;;;;;17.19;100.00;98972.47;4822489;29;20050;-80
2023/08/13 01:36:17;;;;;;;0.30;0.30;;;;;;;17.15;100.00;98981.53;4822493;29;20721;-80
2023/08/13 01:38:45;;;;;;;0.30;0.30;;;;;;;17.16;100.00;98977.69;4822322;29;20058;-80
2023/08/13 01:41:15;;;;;;;0.30;0.30;;;;;;;17.13;100.00;98970.91;4807912;29;20088;-79
2023/08/13 01:43:42;;;;;;;0.30;0.30;;;;;;;17.08;100.00;98968.22;4807195;29;20150;-80
2023/08/13 01:46:09;;;;;;;0.30;0.30;;;;;;;17.09;100.00;98967.09;4823394;29;20051;-80
2023/08/13 01:48:36;;;;;;;0.30;0.30;;;;;;;17.06;100.00;98970.41;4823384;29;20062;-80
2023/08/13 01:51:03;;;;;;;0.30;0.30;;;;;;;17.07;100.00;98972.06;4823377;29;20141;-79
2023/08/13 01:53:31;;;;;;;0.30;0.30;;;;;;;17.04;100.00;98962.53;4823326;29;20059;-79
2023/08/13 01:55:59;;;;;;;0.30;0.30;;;;;;;17.08;100.00;98973.69;4823248;29;20059;-81
2023/08/13 01:58:27;;;;;;;0.30;0.30;;;;;;;17.08;100.00;98962.78;4792227;29;20083;-81
2023/08/13 02:00:55;;;;;;;0.30;0.30;;;;;;;17.07;100.00;98966.59;4823502;29;20123;-80
2023/08/13 02:03:22;;;;;;;0.30;0.30;;;;;;;17.07;100.00;98972.06;4823311;29;20512;-79
2023/08/13 02:05:49;;;;;;;0.30;0.30;;;;;;;17.05;100.00;98964.16;4806895;29;20058;-80
2023/08/13 02:08:16;;;;;;;0.30;0.30;;;;;;;17.07;100.00;98963.88;4822666;29;20046;-80
2023/08/13 02:10:43;;;;;;;0.30;0.30;;;;;;;17.09;100.00;98962.50;4825435;29;20112;-81
2023/08/13 02:13:11;;;;;;;0.30;0.30;;;;;;;17.09;100.00;98967.09;4825436;29;20050;-80
2023/08/13 02:15:38;;;;;;;0.30;0.30;;;;;;;17.07;100.00;98967.41;4794163;29;20050;-81
2023/08/13 02:18:05;;;;;;;0.30;0.30;;;;;;;17.06;100.00;98956.78;4807009;29;20442;-80
2023/08/13 02:20:32;;;;;;;0.30;0.30;;;;;;;17.05;100.00;98955.16;4806729;29;20084;-80
2023/08/13 02:22:59;;;;;;;0.30;0.30;;;;;;;17.09;100.00;98956.19;4806570;29;20054;-81
2023/08/13 02:25:26;;;;;;;0.30;0.30;;;;;;;17.09;100.00;98954.31;4822831;29;20062;-80
2023/08/13 02:27:57;;;;;;;0.30;0.30;;;;;;;17.11;100.00;98970.38;4806653;29;20050;-80
2023/08/13 02:30:25;;;;;;;0.30;0.30;;;;;;;17.10;100.00;98966.03;4822835;29;20142;-80
2023/08/13 02:32:55;;;;;;;0.30;0.30;;;;;;;17.12;100.00;98961.09;4822840;29;20057;-81
2023/08/13 02:35:22;;;;;;;0.30;0.30;;;;;;;17.17;100.00;98960.25;4822805;29;20466;-80
2023/08/13 02:37:49;;;;;;;0.30;0.30;;;;;;;17.24;100.00;98964.25;4822556;29;20054;-81
2023/08/13 02:40:17;;;;;;;0.30;0.30;;;;;;;17.35;100.00;98964.13;4806393;29;20086;-80
2023/08/13 02:42:45;;;;;;;0.30;0.30;;;;;;;17.43;100.00;98971.69;4806277;29;20065;-81
2023/08/13 02:45:12;;;;;;;0.40;0.40;;;;;;;17.49;100.00;98965.03;4806137;29;20472;-80
2023/08/13 02:47:43;;;;;;;0.30;0.30;;;;;;;17.50;100.00;98967.50;4805981;29;20058;-80
2023/08/13 02:50:17;;;;;;;0.30;0.30;;;;;;;17.53;100.00;98974.28;4806559;29;20057;-81
2023/08/13 02:52:44;;;;;;;0.30;0.30;;;;;;;17.61;100.00;98976.38;4821233;29;20054;-80
2023/08/13 02:55:11;;;;;;;0.30;0.30;;;;;;;17.65;100.00;98968.41;4821465;29;20050;-81
2023/08/13 02:57:38;;;;;;;0.30;0.30;;;;;;;17.62;100.00;98961.59;4822472;29;20065;-82
2023/08/13 03:00:17;;;;;;;0.30;0.30;;;;;;;17.61;100.00;98972.81;4822526;29;20054;-81
2023/08/13 03:02:44;;;;;;;0.30;0.30;;;;;;;17.63;100.00;98965.97;4805726;29;20081;-81
2023/08/13 03:05:11;;;;;;;0.30;0.30;;;;;;;17.65;100.00;98974.69;4821216;29;20107;-81
2023/08/13 03:07:38;;;;;;;0.30;0.30;;;;;;;17.68;100.00;98965.09;4821959;29;20057;-81
2023/08/13 03:10:11;;;;;;;0.30;0.30;;;;;;;17.68;100.00;98963.19;4821490;29;20130;-81
2023/08/13 03:12:39;;;;;;;0.30;0.30;;;;;;;17.69;100.00;98959.34;4805775;29;20054;-80
2023/08/13 03:15:07;;;;;;;0.30;0.30;;;;;;;17.71;100.00;98972.69;4821314;29;20498;-79
2023/08/13 03:17:34;;;;;;;0.30;0.30;;;;;;;17.68;100.00;98968.63;4821080;29;20077;-79
2023/08/13 03:20:04;;;;;;;0.30;0.30;;;;;;;17.73;100.00;98965.84;4805281;29;20059;-80
2023/08/13 03:22:31;;;;;;;0.30;0.30;;;;;;;17.80;100.00;98975.59;4822131;29;20507;-80
2023/08/13 03:24:58;;;;;;;0.30;0.30;;;;;;;17.84;100.00;98965.75;4805529;29;20046;-81
2023/08/13 03:27:25;;;;;;;0.30;0.30;;;;;;;17.84;100.00;98972.00;4790915;29;20050;-80
2023/08/13 03:29:54;;;;;;;0.30;0.30;;;;;;;17.80;100.00;98976.44;4805323;29;20494;-81
2023/08/13 03:32:22;;;;;;;0.30;0.30;;;;;;;17.78;100.00;98973.16;4822000;29;20058;-80
2023/08/13 03:34:51;;;;;;;0.30;0.30;;;;;;;17.80;100.00;98970.16;4790791;29;20054;-82
2023/08/13 03:37:19;;;;;;;0.30;0.30;;;;;;;17.83;100.00;98978.59;4805414;29;20506;-81
2023/08/13 03:39:49;;;;;;;0.40;0.40;;;;;;;17.93;100.00;98974.91;4790253;29;20153;-81
2023/08/13 03:42:16;;;;;;;0.30;0.30;;;;;;;17.95;100.00;98992.63;4822163;29;20059;-80
2023/08/13 03:44:46;;;;;;;0.30;0.30;;;;;;;17.92;100.00;98973.28;4805286;29;20536;-79
2023/08/13 03:47:15;;;;;;;0.30;0.30;;;;;;;18.00;100.00;98983.53;4822235;29;20056;-81
2023/08/13 03:49:43;;;;;;;0.40;0.40;;;;;;;18.01;100.00;98981.63;4821808;29;20529;-81
2023/08/13 03:52:10;;;;;;;0.30;0.30;;;;;;;18.05;100.00;98972.53;4820765;29;20126;-80
2023/08/13 03:54:39;;;;;;;0.30;0.30;;;;;;;18.13;100.00;98979.28;4805631;29;20092;-80
2023/08/13 03:57:07;;;;;;;0.30;0.30;;;;;;;18.13;100.00;98968.34;4805271;29;20058;-80
2023/08/13 03:59:34;;;;;;;0.30;0.30;;;;;;;18.21;100.00;98969.63;4805409;29;20530;-80
2023/08/13 04:02:01;;;;;;;0.30;0.30;;;;;;;18.31;100.00;98967.53;4805002;29;20111;-79
2023/08/13 04:04:31;;;;;;;0.30;0.30;;;;;;;18.37;99.88;98962.78;4805215;29;20422;-82
2023/08/13 04:07:01;;;;;;;0.30;0.30;;;;;;;18.30;99.88;98962.34;4820425;29;20054;-81
2023/08/13 04:09:28;;;;;;;0.30;0.30;;;;;;;18.34;100.00;98963.41;4821619;29;20096;-80
2023/08/13 04:11:58;;;;;;;0.30;0.30;;;;;;;18.35;99.52;98965.81;4821980;29;20058;-81
2023/08/13 04:14:25;;;;;;;0.30;0.30;;;;;;;18.38;99.76;98970.72;4805727;29;20196;-81
2023/08/13 04:16:53;;;;;;;0.30;0.30;;;;;;;18.45;99.12;98972.25;4823687;29;20081;-80
2023/08/13 04:19:20;;;;;;;0.30;0.30;;;;;;;18.53;98.87;98966.91;4825342;29;20471;-80
2023/08/13 04:21:48;;;;;;;0.30;0.30;;;;;;;18.62;98.48;98969.78;4808831;29;20058;-81
2023/08/13 04:24:17;;;;;;;0.30;0.30;;;;;;;18.68;97.93;98962.31;4825244;29;20553;-81
2023/08/13 04:26:45;;;;;;;0.30;0.30;;;;;;;18.76;97.55;98962.47;4824947;29;20118;-80
2023/08/13 04:29:15;;;;;;;0.30;0.30;;;;;;;18.86;97.01;98966.94;4809955;29;20060;-81
2023/08/13 04:31:42;;;;;;;0.30;0.30;;;;;;;18.99;96.24;98963.44;4809710;29;20064;-83
2023/08/13 04:34:09;;;;;;;0.30;0.30;;;;;;;19.10;94.87;98963.25;4808343;29;20426;-82
2023/08/13 04:36:40;;;;;;;0.30;0.30;;;;;;;19.11;94.19;98964.88;4793625;29;20061;-81
2023/08/13 04:39:10;;;;;;;0.30;0.30;;;;;;;19.10;93.45;98961.31;4808573;29;20453;-81
2023/08/13 04:41:40;;;;;;;0.30;0.30;;;;;;;19.07;92.62;98970.16;4823809;29;20054;-81
2023/08/13 04:44:11;;;;;;;0.30;0.30;;;;;;;19.11;92.38;98962.13;4823376;29;20145;-81
2023/08/13 04:46:39;;;;;;;0.30;0.30;;;;;;;19.03;92.27;98961.72;4808408;29;20150;-82
2023/08/13 04:49:06;;;;;;;0.30;0.30;;;;;;;19.10;92.30;98961.31;4823048;29;20089;-79
2023/08/13 04:51:34;;;;;;;0.30;0.30;;;;;;;19.14;91.56;98962.34;4808162;29;20062;-80
2023/08/13 04:54:04;;;;;;;0.30;0.30;;;;;;;19.31;90.90;98969.94;4823246;29;20054;-80
2023/08/13 04:56:31;;;;;;;0.30;0.30;;;;;;;19.42;89.55;98959.63;4793368;29;20054;-81
2023/08/13 04:59:02;;;;;;;0.30;0.30;;;;;;;19.52;89.17;98953.13;4808005;29;20073;-81
2023/08/13 05:01:34;;;;;;;0.30;0.30;;;;;;;19.49;88.63;98954.56;4808041;29;20057;-82
2023/08/13 05:04:04;;;;;;;0.30;0.30;;;;;;;19.47;88.95;98963.09;4822650;29;20442;-81
2023/08/13 05:06:34;;;;;;;0.30;0.30;;;;;;;19.41;89.32;98958.81;4808322;29;20054;-82
2023/08/13 05:09:02;;;;;;;0.30;0.30;;;;;;;19.48;89.51;98951.00;4823580;29;20058;-82
2023/08/13 05:11:32;;;;;;;0.30;0.30;;;;;;;19.58;88.78;98955.47;4810536;29;20487;-81
2023/08/13 05:13:59;;;;;;;0.30;0.30;;;;;;;19.69;87.30;98951.41;4824766;29;20046;-81
2023/08/13 05:16:27;;;;;;;0.30;0.30;;;;;;;19.78;87.13;98945.25;4824347;29;20503;-81
2023/08/13 05:19:01;;;;;;;0.30;0.30;;;;;;;19.91;85.60;98945.22;4808059;29;20637;-82
2023/08/13 05:21:30;;;;;;;0.40;0.40;;;;;;;20.04;84.81;98942.75;4808546;29;20119;-82
2023/08/13 05:23:57;;;;;;;0.30;0.30;;;;;;;20.23;83.68;98948.06;4824142;29;20111;-81
2023/08/13 05:26:26;;;;;;;0.30;0.30;;;;;;;20.08;83.71;98949.25;4823824;29;20107;-82
2023/08/13 05:28:54;;;;;;;0.30;0.30;;;;;;;19.84;84.17;98954.97;4808169;29;20103;-81
2023/08/13 05:31:21;;;;;;;0.30;0.30;;;;;;;19.59;85.29;98956.28;4824269;29;20085;-81
2023/08/13 05:33:53;;;;;;;0.30;0.30;;;;;;;19.52;86.02;98950.38;4807453;29;20058;-80
2023/08/13 05:36:21;;;;;;;0.30;0.30;;;;;;;19.49;85.70;98944.41;4807152;29;20058;-80
2023/08/13 05:38:48;;;;;;;0.30;0.30;;;;;;;19.63;85.66;98951.81;4823807;29;20469;-81
2023/08/13 05:41:22;;;;;;;0.40;0.40;;;;;;;19.65;85.11;98946.84;4824327;29;20059;-81
2023/08/13 05:43:59;;;;;;;0.30;0.30;;;;;;;19.83;83.74;98942.41;4823567;29;20056;-80
2023/08/13 05:46:26;;;;;;;0.40;0.40;;;;;;;20.14;82.09;98939.78;4807917;29;20066;-80
2023/08/13 05:48:59;;;;;;;0.40;0.40;;;;;;;20.46;78.92;98944.22;4807717;29;20050;-81
2023/08/13 05:51:27;;;;;;;0.30;0.30;;;;;;;20.60;78.47;98937.91;4823909;29;20058;-81
2023/08/13 05:53:54;;;;;;;0.30;0.30;;;;;;;20.83;77.81;98938.69;4823294;29;20056;-82
2023/08/13 05:56:21;;;;;;;0.40;0.40;;;;;;;20.69;75.36;98939.56;4823549;29;20149;-81
2023/08/13 05:58:51;;;;;;;0.40;0.40;;;;;;;20.50;75.38;98937.00;4822249;29;20062;-82
2023/08/13 06:01:19;;;;;;;0.32;0.32;;;;;;;20.45;75.05;98939.06;4822117;29;20050;-81
2023/08/13 06:03:47;;;;;;;0.40;0.40;;;;;;;20.59;74.26;98941.78;4806971;29;20538;-80
2023/08/13 06:06:20;;;;;;;0.40;0.40;;;;;;;20.92;72.89;98934.88;4791498;29;20062;-82
2023/08/13 06:08:48;;;;;;;0.40;0.40;;;;;;;21.21;72.11;98934.34;4807216;29;20051;-82
2023/08/13 06:11:15;;;;;;;0.38;0.38;;;;;;;21.50;70.77;98935.78;4823598;29;20114;-81
2023/08/13 06:13:42;;;;;;;0.30;0.30;;;;;;;21.37;69.96;98918.28;4823398;29;20061;-81
2023/08/13 06:16:09;;;;;;;0.30;0.30;;;;;;;21.17;69.87;98929.84;4806993;29;20476;-81
2023/08/13 06:18:37;;;;;;;0.30;0.30;;;;;;;20.67;70.47;98916.34;4823289;29;20115;-81
2023/08/13 06:21:04;;;;;;;0.30;0.30;;;;;;;20.46;71.13;98930.53;4823180;29;20076;-82
2023/08/13 06:23:38;;;;;;;0.30;0.30;;;;;;;20.17;72.47;98925.44;4823328;29;20145;-82
2023/08/13 06:26:06;;;;;;;0.30;0.30;;;;;;;20.08;72.79;98944.56;4822845;29;20149;-81
2023/08/13 06:28:37;;;;;;;0.30;0.30;;;;;;;20.09;72.20;98932.47;4823258;29;20062;-80
2023/08/13 06:31:05;;;;;;;0.40;0.40;;;;;;;20.59;70.32;98948.06;4822840;29;20057;-81
2023/08/13 06:33:32;;;;;;;0.40;0.40;;;;;;;21.00;66.89;98945.06;4806910;29;20066;-80
2023/08/13 06:35:59;;;;;;;0.30;0.30;;;;;;;21.26;67.04;98938.09;4823165;29;20103;-80
2023/08/13 06:38:28;;;;;;;0.30;0.30;;;;;;;21.39;64.22;98953.66;4806006;29;20058;-82
2023/08/13 06:41:01;;;;;;;0.30;0.30;;;;;;;20.87;65.21;98936.94;4822796;29;20570;-82
2023/08/13 06:43:29;;;;;;;0.30;0.30;;;;;;;20.80;65.34;98948.34;4822789;29;20054;-81
2023/08/13 06:46:02;;;;;;;0.30;0.30;;;;;;;20.77;66.19;98949.78;4822731;29;20399;-82
2023/08/13 06:48:33;;;;;;;0.30;0.30;;;;;;;20.64;66.10;98945.19;4822710;29;20046;-82
2023/08/13 06:51:00;;;;;;;0.30;0.30;;;;;;;20.38;66.87;98946.91;4825478;29;20070;-82
2023/08/13 06:53:33;;;;;;;0.30;0.30;;;;;;;20.28;67.44;98948.78;4823814;29;20057;-82
2023/08/13 06:56:03;;;;;;;0.30;0.30;;;;;;;20.11;67.29;98973.28;4821105;29;20456;-82
2023/08/13 06:58:30;;;;;;;0.30;0.30;;;;;;;19.75;67.85;98975.97;4822710;29;20054;-82
2023/08/13 07:00:59;;;;;;;0.30;0.30;;;;;;;19.60;68.36;98945.03;4821728;29;20051;-81
2023/08/13 07:03:26;;;;;;;0.30;0.30;;;;;;;19.81;67.69;98967.34;4822999;29;20625;-82
2023/08/13 07:05:54;;;;;;;0.40;0.40;;;;;;;20.02;67.36;98975.13;4832119;29;20050;-81
2023/08/13 07:08:23;;;;;;;0.30;0.30;;;;;;;19.91;67.74;98975.34;4823739;29;20060;-82
2023/08/13 07:10:50;;;;;;;0.30;0.30;;;;;;;19.87;67.96;98971.56;4830260;29;20518;-81
2023/08/13 07:13:17;;;;;;;0.30;0.30;;;;;;;19.96;68.56;98973.63;4822337;29;20063;-82
2023/08/13 07:15:48;;;;;;;0.30;0.30;;;;;;;19.98;67.75;98983.16;4822196;29;20058;-82
2023/08/13 07:18:16;;;;;;;0.30;0.30;;;;;;;19.75;68.03;98986.91;4822225;29;20054;-82
2023/08/13 07:20:43;;;;;;;0.30;0.30;;;;;;;19.41;69.28;98988.09;4829246;29;20057;-81
2023/08/13 07:23:13;;;;;;;0.30;0.30;;;;;;;19.25;69.93;98996.59;4813641;29;20212;-83
2023/08/13 07:25:46;;;;;;;0.40;0.40;;;;;;;19.16;70.13;99008.53;4831774;29;20227;-81
2023/08/13 07:28:18;;;;;;;0.40;0.40;;;;;;;19.29;70.07;98994.06;4834270;29;20050;-82
2023/08/13 07:30:47;;;;;;;0.30;0.30;;;;;;;19.35;69.07;99003.81;4835149;29;20058;-81
2023/08/13 07:33:17;;;;;;;0.40;0.40;;;;;;;19.24;69.63;99005.94;4819963;29;20073;-81
2023/08/13 07:35:45;;;;;;;0.40;0.40;;;;;;;19.16;70.19;98990.19;4830552;29;20089;-83
2023/08/13 07:38:13;;;;;;;0.30;0.30;;;;;;;19.06;70.52;98990.38;4822422;29;20429;-81
2023/08/13 07:40:42;;;;;;;0.40;0.40;;;;;;;19.05;71.34;98996.97;4837623;29;20516;-81
2023/08/13 07:43:16;;;;;;;0.40;0.40;;;;;;;19.08;71.28;99017.44;4780583;30;20055;-83
2023/08/13 07:45:44;;;;;;;0.30;0.30;;;;;;;18.97;71.33;98998.47;4781813;30;20459;-82
2023/08/13 07:48:11;;;;;;;0.30;0.30;;;;;;;18.82;72.23;99005.00;4781704;30;20078;-83
2023/08/13 07:50:40;;;;;;;0.32;0.32;;;;;;;18.94;72.17;98996.34;4782556;30;20054;-82
2023/08/13 07:53:07;;;;;;;0.40;0.40;;;;;;;19.11;71.63;99014.09;4766127;30;20079;-81
2023/08/13 07:55:34;;;;;;;0.30;0.30;;;;;;;19.15;71.22;98993.25;4781048;30;20167;-80
2023/08/13 07:58:02;;;;;;;0.32;0.32;;;;;;;19.02;71.61;98994.84;4768118;30;20059;-81
2023/08/13 08:00:36;;;;;;;0.30;0.30;;;;;;;18.87;71.88;99003.31;4781739;30;20097;-82
2023/08/13 08:03:08;;;;;;;0.30;0.30;;;;;;;18.80;72.58;98987.28;4782700;30;20154;-83
2023/08/13 08:05:36;;;;;;;0.40;0.40;;;;;;;18.91;72.48;98988.72;4768577;30;20528;-82
2023/08/13 08:08:03;;;;;;;0.40;0.40;;;;;;;18.95;72.41;99011.63;4784103;30;20051;-83
2023/08/13 08:10:34;;;;;;;0.30;0.30;;;;;;;18.86;72.38;99016.16;4773175;30;20589;-82
2023/08/13 08:13:01;;;;;;;0.30;0.30;;;;;;;18.55;72.88;99008.41;4780465;30;20051;-82
2023/08/13 08:15:31;;;;;;;0.40;0.40;;;;;;;18.61;73.66;99025.56;4778537;30;20111;-83
2023/08/13 08:18:02;;;;;;;0.35;0.35;;;;;;;18.53;73.09;98994.22;4759490;30;20063;-82
2023/08/13 08:20:29;;;;;;;0.30;0.30;;;;;;;18.52;72.89;99021.88;4800827;29;20076;-82
2023/08/13 08:22:56;;;;;;;0.30;0.30;;;;;;;18.61;72.73;99025.56;4803138;29;20050;-83
2023/08/13 08:25:24;;;;;;;0.30;0.30;;;;;;;18.74;72.42;99021.25;4835814;29;20065;-82
2023/08/13 08:27:51;;;;;;;0.30;0.30;;;;;;;18.59;72.38;99008.66;4819400;29;20398;-83
2023/08/13 08:30:18;;;;;;;0.40;0.40;;;;;;;18.66;72.26;99005.53;4836641;29;20114;-82
2023/08/13 08:32:46;;;;;;;0.40;0.40;;;;;;;18.75;71.61;99001.00;4836035;29;20046;-81
2023/08/13 08:35:14;;;;;;;0.30;0.30;;;;;;;19.08;71.30;99031.13;4837642;29;20506;-81
2023/08/13 08:37:43;;;;;;;0.40;0.40;;;;;;;19.10;71.05;99001.56;4822129;29;20050;-85
2023/08/13 08:40:20;;;;;;;0.30;0.30;;;;;;;19.27;70.10;99024.47;4805670;29;20061;-83
2023/08/13 08:42:49;;;;;;;0.30;0.30;;;;;;;19.36;69.74;99027.31;4807242;29;20058;-84
2023/08/13 08:45:17;;;;;;;0.40;0.40;;;;;;;19.41;69.96;99034.63;4823193;29;20471;-83
2023/08/13 08:47:50;;;;;;;0.40;0.40;;;;;;;19.46;68.96;99018.91;4808441;29;20058;-82
2023/08/13 08:50:18;;;;;;;0.40;0.40;;;;;;;19.44;69.21;99026.59;4829255;29;20734;-81
2023/08/13 08:52:45;;;;;;;0.30;0.30;;;;;;;19.63;68.93;99031.22;4830376;29;20057;-83
2023/08/13 08:55:12;;;;;;;0.30;0.30;;;;;;;19.53;68.44;99032.22;4828976;29;20054;-82
2023/08/13 08:57:40;;;;;;;0.30;0.30;;;;;;;19.31;69.46;99024.69;4833430;29;20054;-82
2023/08/13 09:00:08;;;;;;;0.30;0.30;;;;;;;19.26;69.70;99030.25;4822297;29;20140;-82
2023/08/13 09:02:39;;;;;;;0.40;0.40;;;;;;;19.29;69.97;99037.84;4824490;29;20081;-83
2023/08/13 09:05:09;;;;;;;0.40;0.40;;;;;;;19.33;70.10;99038.88;4814078;29;20057;-82
2023/08/13 09:07:43;;;;;;;0.40;0.40;;;;;;;19.53;69.90;99036.88;4834945;29;21119;-83
2023/08/13 09:10:10;;;;;;;0.40;0.40;;;;;;;19.66;70.05;99030.59;4838569;29;20139;-83
2023/08/13 09:12:41;;;;;;;0.30;0.30;;;;;;;19.80;69.18;99030.63;4843630;29;20057;-82
2023/08/13 09:15:10;;;;;;;0.30;0.30;;;;;;;19.82;68.83;99023.72;4837487;29;20410;-82
2023/08/13 09:17:38;;;;;;;0.30;0.30;;;;;;;19.66;68.33;99031.41;4817433;29;20062;-82
2023/08/13 09:20:17;;;;;;;0.40;0.40;;;;;;;19.64;68.69;99030.88;4824797;29;20074;-82
2023/08/13 09:22:48;;;;;;;0.30;0.30;;;;;;;19.43;69.99;99048.81;4840933;29;20506;-81
2023/08/13 09:25:16;;;;;;;0.25;0.25;;;;;;;19.10;70.61;99057.06;4837150;29;20575;-83
2023/08/13 09:27:44;;;;;;;0.30;0.30;;;;;;;18.90;71.53;99057.41;4834326;29;20058;-82
2023/08/13 09:30:18;;;;;;;0.30;0.30;;;;;;;18.78;72.76;99055.13;4819859;29;20077;-82
2023/08/13 09:32:46;;;;;;;0.30;0.30;;;;;;;18.88;72.79;99063.16;4837833;29;20060;-82
2023/08/13 09:35:13;;;;;;;0.30;0.30;;;;;;;18.97;72.78;99063.31;4794933;29;20054;-81
2023/08/13 09:37:41;;;;;;;0.30;0.30;;;;;;;19.07;72.39;99067.81;4839525;29;20132;-81
2023/08/13 09:40:08;;;;;;;0.30;0.30;;;;;;;19.02;72.03;99077.69;4839461;29;20186;-81
2023/08/13 09:42:36;;;;;;;0.40;0.40;;;;;;;18.92;72.59;99066.13;4838044;29;20053;-81
2023/08/13 09:45:04;;;;;;;0.30;0.30;;;;;;;18.80;73.21;99052.91;4840536;29;20778;-82
2023/08/13 09:47:33;;;;;;;0.30;0.30;;;;;;;18.62;73.54;99073.63;4809963;29;20058;-83
2023/08/13 09:50:01;;;;;;;0.30;0.30;;;;;;;18.48;74.58;99068.09;4820211;29;20053;-83
2023/08/13 09:52:31;;;;;;;0.30;0.30;;;;;;;18.41;75.59;99068.47;4793401;29;20050;-81
2023/08/13 09:55:11;;;;;;;0.30;0.30;;;;;;;18.47;76.74;99062.94;4841894;29;20633;-84
2023/08/13 09:57:41;;;;;;;0.30;0.30;;;;;;;18.39;76.77;99054.28;4820606;29;20054;-82
2023/08/13 10:00:10;;;;;;;0.30;0.30;;;;;;;18.41;77.18;99078.59;4836980;29;20050;-79
2023/08/13 10:02:40;;;;;;;0.30;0.30;;;;;;;18.24;77.94;99059.16;4823498;29;20548;-84
2023/08/13 10:05:12;;;;;;;0.40;0.40;;;;;;;18.05;79.83;99076.31;4823487;29;20938;-82
2023/08/13 10:07:40;;;;;;;0.30;0.30;;;;;;;17.90;80.94;99074.59;4839317;29;20658;-82
2023/08/13 10:10:07;;;;;;;0.30;0.30;;;;;;;17.92;81.44;99064.16;4823659;29;20442;-81
2023/08/13 10:12:36;;;;;;;0.30;0.30;;;;;;;17.87;82.89;99063.44;4824175;29;20080;-81
2023/08/13 10:15:04;;;;;;;0.30;0.30;;;;;;;18.01;82.59;99064.34;4824281;29;20514;-83
2023/08/13 10:17:32;;;;;;;0.30;0.30;;;;;;;17.98;82.68;99071.22;4824361;29;20062;-82
2023/08/13 10:19:59;;;;;;;0.30;0.30;;;;;;;17.87;82.84;99068.88;4836460;29;20050;-82
2023/08/13 10:22:40;;;;;;;0.30;0.30;;;;;;;17.75;83.36;99080.19;4836017;29;20136;-83
2023/08/13 10:25:26;;;;;;;0.35;0.35;;;;;;;17.70;83.90;99086.53;4821348;29;20061;-82
2023/08/13 10:27:54;;;;;;;0.35;0.35;;;;;;;17.81;84.49;99086.44;4840565;29;20081;-83
2023/08/13 10:30:21;;;;;;;0.40;0.40;;;;;;;17.92;83.96;99083.28;4840124;29;20079;-81
2023/08/13 10:32:54;;;;;;;0.30;0.30;;;;;;;18.02;84.01;99068.69;4839986;29;20056;-81
2023/08/13 10:35:24;;;;;;;0.30;0.30;;;;;;;18.06;82.85;99083.41;4838276;29;20061;-82
2023/08/13 10:37:55;;;;;;;0.40;0.40;;;;;;;18.05;82.77;99087.22;4817874;29;20054;-82
2023/08/13 10:40:23;;;;;;;0.40;0.40;;;;;;;18.12;82.77;99087.69;4824096;29;20068;-83
2023/08/13 10:42:54;;;;;;;0.40;0.40;;;;;;;18.25;82.60;99091.63;4819006;29;20636;-82
2023/08/13 10:45:24;;;;;;;0.30;0.30;;;;;;;18.33;82.23;99084.69;4823656;29;20050;-81
2023/08/13 10:48:03;;;;;;;0.30;0.30;;;;;;;18.32;82.78;99091.28;4792421;29;20068;-81
2023/08/13 10:50:40;;;;;;;0.40;0.40;;;;;;;18.36;82.34;99073.19;4821542;29;20054;-82
2023/08/13 10:53:24;;;;;;;0.40;0.40;;;;;;;18.53;81.83;99078.94;4839577;29;20054;-81
2023/08/13 10:55:54;;;;;;;0.40;0.40;;;;;;;18.46;81.14;99081.25;4823794;29;20077;-82
2023/08/13 10:58:23;;;;;;;0.30;0.30;;;;;;;18.39;81.67;99072.59;4822071;29;20057;-82
2023/08/13 11:00:51;;;;;;;0.40;0.40;;;;;;;18.50;80.95;99068.59;4839307;29;20060;-82
2023/08/13 11:03:28;;;;;;;0.30;0.30;;;;;;;18.60;80.62;99093.06;4823266;29;20102;-81
2023/08/13 11:05:56;;;;;;;0.40;0.40;;;;;;;18.54;81.88;99077.84;4835305;29;20054;-81
2023/08/13 11:08:26;;;;;;;0.40;0.40;;;;;;;18.34;82.99;99075.41;4824140;29;20552;-81
2023/08/13 11:11:16;;;;;;;0.40;0.40;;;;;;;18.33;84.61;99071.03;4826493;29;20167;-82
2023/08/13 11:13:47;;;;;;;0.50;0.50;;;;;;;19.03;82.90;99086.72;4768047;30;20062;-79
2023/08/13 11:16:15;;;;;;;0.50;0.50;;;;;;;19.66;79.85;99077.13;4783056;30;20626;-81
2023/08/13 11:18:43;;;;;;;0.40;0.40;;;;;;;19.98;79.25;99084.50;4783656;30;20090;-83
2023/08/13 11:21:11;;;;;;;0.40;0.40;;;;;;;20.03;77.81;99083.56;4767444;30;20215;-84
2023/08/13 11:23:39;;;;;;;0.40;0.40;;;;;;;20.06;76.93;99077.47;4781233;29;20100;-82
2023/08/13 11:26:09;;;;;;;0.40;0.40;;;;;;;19.98;77.61;99080.91;4766590;30;20515;-81
2023/08/13 11:28:37;;;;;;;0.30;0.30;;;;;;;19.74;77.80;99064.69;4786179;30;20073;-83
2023/08/13 11:31:07;;;;;;;0.30;0.30;;;;;;;19.58;78.04;99064.97;4785903;29;20562;-83
2023/08/13 11:33:34;;;;;;;0.30;0.30;;;;;;;19.34;78.39;99092.47;4769385;30;20051;-83
2023/08/13 11:36:02;;;;;;;0.30;0.30;;;;;;;19.20;78.67;99080.69;4783103;30;20051;-82
2023/08/13 11:38:29;;;;;;;0.30;0.30;;;;;;;19.17;78.95;99098.53;4781998;30;20059;-83
2023/08/13 11:40:59;;;;;;;0.30;0.30;;;;;;;19.09;78.71;99080.06;4782623;30;20055;-82